Time;durP1;ratioP1;P1;durP2;ratioP2;P2;SDS_P1;SDS_P2;PMS_P1;PMS_P2;Temp;Humidity;BMP_temperature;BMP_pressure;BME280_temperature;BME280_humidity;BME280_pressure;Samples;Min_cycle;Max_cycle;Signal;HPM_P1;HPM_P2
2021/01/17 00:01:13;;;;;;;8.43;6.20;;;;;;;-0.51;68.50;101037.66;5041657;28;20206;-65
2021/01/17 00:03:42;;;;;;;13.50;7.83;;;;;;;-0.53;68.53;101029.84;5038488;28;20229;-65
2021/01/17 00:06:08;;;;;;;9.23;6.73;;;;;;;-0.55;68.81;101030.75;5031463;28;20272;-65
2021/01/17 00:08:34;;;;;;;8.57;6.60;;;;;;;-0.59;68.29;101029.94;5031071;28;20213;-64
2021/01/17 00:11:00;;;;;;;9.13;6.40;;;;;;;-0.59;68.18;101034.28;5031639;28;20293;-64
2021/01/17 00:13:26;;;;;;;10.47;7.27;;;;;;;-0.62;68.16;101027.34;5043551;28;20686;-64
2021/01/17 00:15:52;;;;;;;9.50;6.80;;;;;;;-0.64;68.05;101025.63;5054079;28;20220;-65
2021/01/17 00:18:18;;;;;;;10.97;7.13;;;;;;;-0.66;68.21;101014.31;5049223;28;20300;-64
2021/01/17 00:20:45;;;;;;;8.83;6.10;;;;;;;-0.68;67.84;101024.78;5052970;28;20202;-65
2021/01/17 00:23:11;;;;;;;9.80;7.20;;;;;;;-0.70;68.10;101018.69;5050338;28;20194;-64
2021/01/17 00:25:37;;;;;;;7.63;6.40;;;;;;;-0.72;68.00;101016.09;5044401;28;20202;-64
2021/01/17 00:28:03;;;;;;;9.73;6.03;;;;;;;-0.74;68.11;101014.41;5045945;28;20202;-64
2021/01/17 00:30:31;;;;;;;8.73;6.00;;;;;;;-0.77;67.69;101011.81;5050723;28;20222;-65
2021/01/17 00:32:59;;;;;;;8.73;6.03;;;;;;;-0.80;67.87;101004.88;5053679;28;20206;-64
2021/01/17 00:35:27;;;;;;;8.93;6.23;;;;;;;-0.81;67.88;101007.50;5052443;28;20201;-64
2021/01/17 00:37:55;;;;;;;8.00;5.73;;;;;;;-0.82;67.97;101001.41;5043422;28;20667;-63
2021/01/17 00:40:22;;;;;;;8.33;5.93;;;;;;;-0.83;67.66;101002.28;5040711;28;20235;-63
2021/01/17 00:42:50;;;;;;;7.63;5.63;;;;;;;-0.85;67.60;101004.06;5046819;28;20214;-65
2021/01/17 00:45:17;;;;;;;8.13;5.70;;;;;;;-0.85;67.54;100997.97;5045070;28;20222;-64
2021/01/17 00:47:44;;;;;;;7.80;5.47;;;;;;;-0.86;67.62;100997.09;5046318;28;20213;-64
2021/01/17 00:50:11;;;;;;;7.80;5.10;;;;;;;-0.86;67.71;100996.22;5046208;28;20226;-66
2021/01/17 00:52:37;;;;;;;9.87;5.73;;;;;;;-0.87;67.51;100997.09;5041047;28;20569;-64
2021/01/17 00:55:06;;;;;;;8.63;5.30;;;;;;;-0.87;67.90;100992.75;5046326;28;20650;-64
2021/01/17 00:57:32;;;;;;;7.13;5.43;;;;;;;-0.87;67.56;100997.09;5040988;28;20209;-61
2021/01/17 00:59:58;;;;;;;7.63;5.20;;;;;;;-0.88;67.23;100996.25;5044490;28;20271;-64
2021/01/17 01:02:24;;;;;;;7.80;5.70;;;;;;;-0.88;67.30;100990.13;5045406;28;20288;-63
2021/01/17 01:04:50;;;;;;;9.23;5.40;;;;;;;-0.88;67.22;100987.53;5040424;28;20233;-64
2021/01/17 01:07:16;;;;;;;7.63;5.53;;;;;;;-0.89;67.39;100988.41;5044271;28;20214;-64
2021/01/17 01:09:42;;;;;;;7.20;5.03;;;;;;;-0.90;67.25;100984.09;5043911;28;20719;-64
2021/01/17 01:12:09;;;;;;;7.93;5.47;;;;;;;-0.90;67.36;100986.72;5049372;28;20208;-64
2021/01/17 01:14:35;;;;;;;6.23;4.77;;;;;;;-0.92;66.87;100983.25;5041830;28;20202;-64
2021/01/17 01:17:01;;;;;;;7.30;5.53;;;;;;;-0.93;67.15;100981.50;5042059;28;20202;-66
2021/01/17 01:19:28;;;;;;;7.93;5.47;;;;;;;-0.93;66.85;100976.28;5047917;28;20772;-64
2021/01/17 01:21:54;;;;;;;7.27;5.80;;;;;;;-0.94;67.19;100983.25;5048616;28;20244;-65
2021/01/17 01:24:20;;;;;;;8.47;5.70;;;;;;;-0.94;66.57;100972.78;5048745;28;20261;-66
2021/01/17 01:26:46;;;;;;;8.57;6.40;;;;;;;-0.95;66.92;100978.91;5046327;28;20212;-65
2021/01/17 01:29:13;;;;;;;7.10;5.47;;;;;;;-0.95;66.93;100970.19;5049200;28;20244;-65
2021/01/17 01:31:42;;;;;;;7.63;5.73;;;;;;;-0.93;66.97;100971.06;5046962;28;20207;-65
2021/01/17 01:34:08;;;;;;;9.60;5.73;;;;;;;-0.95;66.94;100964.97;5043850;28;20614;-62
2021/01/17 01:36:36;;;;;;;8.20;5.97;;;;;;;-0.95;67.32;100973.69;5048060;28;20214;-66
2021/01/17 01:39:04;;;;;;;9.43;6.83;;;;;;;-0.96;66.87;100966.72;5061757;22;20233;-81
2021/01/17 01:41:32;;;;;;;8.50;5.93;;;;;;;-0.97;67.00;100959.75;5088129;28;20245;-80
2021/01/17 01:43:58;;;;;;;9.23;6.40;;;;;;;-0.96;67.10;100963.22;5087269;28;20221;-80
2021/01/17 01:46:30;;;;;;;9.53;6.53;;;;;;;-0.97;67.09;100967.59;5081514;28;20225;-79
2021/01/17 01:49:00;;;;;;;10.73;5.70;;;;;;;-0.96;67.28;100969.34;5079021;28;20219;-78
2021/01/17 01:51:27;;;;;;;8.10;6.07;;;;;;;-0.98;67.14;100968.47;5079925;28;20836;-80
2021/01/17 01:53:54;;;;;;;9.00;5.80;;;;;;;-1.00;67.12;100965.00;5078041;28;20209;-80
2021/01/17 01:56:21;;;;;;;8.30;6.20;;;;;;;-0.99;67.35;100965.88;5078085;28;20327;-80
2021/01/17 01:58:47;;;;;;;9.53;6.27;;;;;;;-0.99;67.67;100971.09;5078318;28;20212;-79
2021/01/17 02:01:14;;;;;;;8.03;6.07;;;;;;;-0.99;67.24;100961.50;5078291;28;20206;-79
2021/01/17 02:03:46;;;;;;;8.73;5.97;;;;;;;-1.01;67.46;100958.06;5077952;28;20258;-80
2021/01/17 02:06:15;;;;;;;8.03;6.20;;;;;;;-1.01;67.44;100959.81;5077929;28;20217;-80
2021/01/17 02:09:02;;;;;;;8.33;5.67;;;;;;;-1.01;67.69;100952.81;5076928;28;20621;-78
2021/01/17 02:11:40;;;;;;;8.83;6.07;;;;;;;-1.02;67.44;100948.47;5077732;28;20197;-79
2021/01/17 02:14:13;;;;;;;9.17;6.10;;;;;;;-1.04;67.87;100950.25;5077421;28;20193;-80
2021/01/17 02:16:41;;;;;;;8.30;5.37;;;;;;;-1.05;67.74;100951.13;5073428;28;20217;-80
2021/01/17 02:19:09;;;;;;;9.03;5.93;;;;;;;-1.07;67.63;100942.44;5077593;28;20234;-79
2021/01/17 02:21:37;;;;;;;9.70;5.90;;;;;;;-1.09;67.58;100937.25;5079180;28;20201;-79
2021/01/17 02:24:09;;;;;;;8.80;5.53;;;;;;;-1.09;67.44;100939.00;5075613;28;20220;-81
2021/01/17 02:26:38;;;;;;;7.80;6.23;;;;;;;-1.10;67.30;100927.66;5078783;28;20228;-81
2021/01/17 02:29:04;;;;;;;7.67;5.57;;;;;;;-1.12;67.66;100934.66;5078650;28;20617;-81
2021/01/17 02:31:33;;;;;;;7.93;5.60;;;;;;;-1.12;67.45;100932.03;5078811;28;20197;-80
2021/01/17 02:34:00;;;;;;;8.87;6.03;;;;;;;-1.13;67.89;100927.69;5076296;28;20220;-79
2021/01/17 02:36:41;;;;;;;12.77;6.90;;;;;;;-1.14;67.67;100931.19;5080094;28;20219;-79
2021/01/17 02:39:12;;;;;;;8.70;5.83;;;;;;;-1.14;67.74;100933.81;5076193;28;20211;-80
2021/01/17 02:41:55;;;;;;;8.90;6.20;;;;;;;-1.15;67.81;100926.84;5080612;28;20193;-79
2021/01/17 02:44:21;;;;;;;9.50;6.37;;;;;;;-1.16;67.84;100924.25;5074832;28;20221;-79
2021/01/17 02:46:48;;;;;;;7.77;5.73;;;;;;;-1.17;68.01;100925.13;5082005;28;20221;-80
2021/01/17 02:49:14;;;;;;;8.63;5.87;;;;;;;-1.19;68.04;100926.88;5081817;28;20657;-79
2021/01/17 02:51:40;;;;;;;9.27;6.10;;;;;;;-1.21;67.96;100926.91;5080021;28;20208;-81
2021/01/17 02:54:10;;;;;;;10.57;6.60;;;;;;;-1.21;68.02;100926.91;5069829;28;20210;-80
2021/01/17 02:56:40;;;;;;;9.83;5.90;;;;;;;-1.21;67.69;100920.81;5071760;28;20224;-79
2021/01/17 02:59:13;;;;;;;7.53;5.47;;;;;;;-1.21;68.02;100920.81;5080128;28;20197;-82
2021/01/17 03:01:44;;;;;;;7.27;5.07;;;;;;;-1.23;67.79;100917.34;5078096;28;20250;-79
2021/01/17 03:04:15;;;;;;;9.77;6.77;;;;;;;-1.24;67.87;100924.31;5079329;28;20213;-79
2021/01/17 03:06:43;;;;;;;9.43;6.50;;;;;;;-1.25;68.27;100914.75;5080629;28;20221;-80
2021/01/17 03:09:10;;;;;;;14.03;7.67;;;;;;;-1.25;67.70;100917.34;5080096;28;20208;-79
2021/01/17 03:11:36;;;;;;;8.73;5.97;;;;;;;-1.23;67.93;100915.59;5080670;28;20211;-80
2021/01/17 03:14:06;;;;;;;8.30;5.87;;;;;;;-1.24;67.57;100911.25;5080846;28;20240;-80
2021/01/17 03:16:34;;;;;;;9.27;6.60;;;;;;;-1.25;67.87;100908.66;5079936;28;20718;-80
2021/01/17 03:19:00;;;;;;;8.97;6.30;;;;;;;-1.25;67.93;100906.03;5076047;28;20232;-80
2021/01/17 03:21:26;;;;;;;8.40;5.67;;;;;;;-1.25;67.71;100912.13;5080322;28;20193;-79
2021/01/17 03:23:52;;;;;;;9.83;6.90;;;;;;;-1.25;67.80;100909.53;5079073;28;20224;-81
2021/01/17 03:26:19;;;;;;;10.43;6.30;;;;;;;-1.26;67.98;100910.44;5079924;28;20216;-79
2021/01/17 03:28:45;;;;;;;9.10;6.50;;;;;;;-1.26;67.97;100909.56;5079642;28;20678;-80
2021/01/17 03:31:11;;;;;;;9.07;6.33;;;;;;;-1.27;67.92;100905.22;5077874;28;20655;-79
2021/01/17 03:33:38;;;;;;;8.33;5.93;;;;;;;-1.25;67.74;100911.28;5080034;28;20199;-80
2021/01/17 03:36:05;;;;;;;7.93;5.80;;;;;;;-1.26;68.00;100909.56;5079480;28;20280;-80
2021/01/17 03:38:31;;;;;;;8.50;5.87;;;;;;;-1.26;67.71;100912.19;5080174;28;20219;-81
2021/01/17 03:40:58;;;;;;;8.70;5.97;;;;;;;-1.25;67.97;100917.34;5072544;28;20211;-80
2021/01/17 03:43:24;;;;;;;9.27;6.97;;;;;;;-1.23;67.93;100917.34;5070487;28;20204;-81
2021/01/17 03:45:50;;;;;;;9.37;6.70;;;;;;;-1.23;68.15;100915.59;5075654;22;20243;-65
2021/01/17 03:48:16;;;;;;;9.77;6.67;;;;;;;-1.22;68.08;100914.72;5048824;28;20205;-67
2021/01/17 03:50:42;;;;;;;10.43;6.67;;;;;;;-1.21;68.22;100913.84;5048599;28;20661;-65
2021/01/17 03:53:08;;;;;;;9.97;6.93;;;;;;;-1.19;67.89;100916.44;5040325;28;20209;-65
2021/01/17 03:55:34;;;;;;;9.93;6.83;;;;;;;-1.20;68.20;100910.34;5035166;28;20253;-65
2021/01/17 04:00:28;;;;;;;9.57;6.77;;;;;;;-1.20;67.84;100919.94;5031376;28;20222;-64
2021/01/17 04:02:54;;;;;;;7.63;5.63;;;;;;;-1.21;68.37;100915.59;5015246;28;20207;-65
2021/01/17 04:05:20;;;;;;;9.23;6.63;;;;;;;-1.21;68.43;100912.97;5026755;28;20297;-64
2021/01/17 04:07:47;;;;;;;9.13;6.37;;;;;;;-1.23;68.01;100912.13;5038043;28;20213;-66
2021/01/17 04:10:13;;;;;;;11.47;6.70;;;;;;;-1.24;68.16;100907.78;5039766;28;20218;-65
2021/01/17 04:12:39;;;;;;;8.53;6.50;;;;;;;-1.26;68.49;100905.22;5034949;28;20206;-64
2021/01/17 04:15:06;;;;;;;9.87;6.50;;;;;;;-1.27;68.41;100906.09;5035222;28;20234;-63
2021/01/17 04:17:32;;;;;;;9.23;6.47;;;;;;;-1.28;68.34;100903.50;5035473;28;20198;-63
2021/01/17 04:19:58;;;;;;;8.43;6.43;;;;;;;-1.28;68.01;100913.94;5034718;28;20317;-65
2021/01/17 04:22:24;;;;;;;9.30;6.87;;;;;;;-1.31;68.79;100912.22;5036485;28;20251;-65
2021/01/17 04:24:51;;;;;;;8.40;5.63;;;;;;;-1.32;68.29;100907.88;5015953;28;20308;-65
2021/01/17 04:27:17;;;;;;;9.27;6.00;;;;;;;-1.31;68.10;100911.34;5015657;28;20225;-66
2021/01/17 04:29:43;;;;;;;7.97;6.20;;;;;;;-1.33;67.98;100913.13;5034516;28;20711;-66
2021/01/17 04:32:09;;;;;;;7.60;5.77;;;;;;;-1.35;68.13;100910.50;5034209;28;20206;-65
2021/01/17 04:34:35;;;;;;;10.57;6.30;;;;;;;-1.36;68.32;100906.16;5027021;28;20199;-67
2021/01/17 04:37:01;;;;;;;8.87;6.07;;;;;;;-1.36;67.96;100907.91;5034555;28;20203;-67
2021/01/17 04:39:33;;;;;;;9.50;6.37;;;;;;;-1.37;68.27;100908.78;5034758;28;20222;-65
2021/01/17 04:42:02;;;;;;;10.63;6.47;;;;;;;-1.38;68.11;100907.06;5034484;28;20213;-67
2021/01/17 04:44:33;;;;;;;7.73;5.77;;;;;;;-1.39;68.22;100903.59;5035050;28;20234;-64
2021/01/17 04:47:02;;;;;;;8.03;6.03;;;;;;;-1.38;68.35;100904.44;5034686;28;20202;-66
2021/01/17 04:49:28;;;;;;;9.80;7.07;;;;;;;-1.38;67.91;100910.53;5034154;28;20230;-64
2021/01/17 04:51:58;;;;;;;9.50;6.57;;;;;;;-1.37;67.59;100911.41;5034569;28;20257;-59
2021/01/17 04:54:24;;;;;;;8.90;5.87;;;;;;;-1.37;67.89;100900.97;5034600;28;20200;-63
2021/01/17 04:56:57;;;;;;;9.90;6.40;;;;;;;-1.37;68.18;100903.56;5033867;28;20253;-64
2021/01/17 04:59:31;;;;;;;8.47;5.87;;;;;;;-1.37;67.94;100906.19;5034280;28;20276;-66
2021/01/17 05:02:19;;;;;;;9.33;6.27;;;;;;;-1.37;68.09;100903.56;5034526;28;20206;-65
2021/01/17 05:05:20;;;;;;;9.70;6.57;;;;;;;-1.38;67.82;100900.09;5034455;28;20229;-65
2021/01/17 05:07:52;;;;;;;9.80;6.47;;;;;;;-1.37;67.54;100907.06;5030815;28;20209;-65
2021/01/17 05:10:34;;;;;;;9.77;6.50;;;;;;;-1.36;68.06;100903.56;5033955;28;20599;-64
2021/01/17 05:13:09;;;;;;;10.07;7.50;;;;;;;-1.37;67.73;100900.97;5034117;28;20260;-65
2021/01/17 05:15:39;;;;;;;11.20;7.20;;;;;;;-1.37;68.08;100912.28;5033968;28;20198;-64
2021/01/17 05:18:05;;;;;;;10.93;7.30;;;;;;;-1.36;67.71;100910.53;5034056;28;20206;-66
2021/01/17 05:20:32;;;;;;;10.53;8.27;;;;;;;-1.35;68.36;100914.88;5034249;28;20289;-65
2021/01/17 05:22:58;;;;;;;10.07;6.80;;;;;;;-1.35;67.79;100917.50;5033966;28;20202;-65
2021/01/17 05:25:26;;;;;;;11.83;8.20;;;;;;;-1.34;67.89;100922.69;5034537;28;20226;-64
2021/01/17 05:27:52;;;;;;;10.83;7.60;;;;;;;-1.33;68.26;100920.94;5033680;28;20639;-65
2021/01/17 05:30:19;;;;;;;9.93;7.20;;;;;;;-1.32;67.81;100912.22;5033826;28;20272;-65
2021/01/17 05:32:50;;;;;;;10.03;6.90;;;;;;;-1.31;67.46;100916.59;5033721;28;20294;-64
2021/01/17 05:35:17;;;;;;;11.80;7.83;;;;;;;-1.30;67.71;100919.19;5034071;28;20630;-65
2021/01/17 05:37:51;;;;;;;12.00;7.87;;;;;;;-1.30;67.95;100918.31;5033943;28;20213;-65
2021/01/17 05:40:18;;;;;;;9.77;7.33;;;;;;;-1.31;67.83;100922.66;5032929;28;20267;-62
2021/01/17 05:42:45;;;;;;;11.73;7.57;;;;;;;-1.30;67.35;100926.16;5033528;28;20576;-65
2021/01/17 05:45:14;;;;;;;10.03;6.93;;;;;;;-1.29;67.90;100930.50;5033967;28;20597;-63
2021/01/17 05:47:40;;;;;;;11.27;6.90;;;;;;;-1.29;67.55;100935.72;5033851;28;20229;-64
2021/01/17 05:50:09;;;;;;;11.40;7.17;;;;;;;-1.29;67.74;100935.72;5033516;28;20230;-64
2021/01/17 05:52:36;;;;;;;12.20;8.10;;;;;;;-1.30;68.10;100934.84;5013590;28;20203;-65
2021/01/17 05:55:04;;;;;;;11.13;7.83;;;;;;;-1.28;67.90;100945.28;5013786;28;20688;-64
2021/01/17 05:57:32;;;;;;;11.33;7.80;;;;;;;-1.28;67.76;100932.22;5013730;28;20211;-65
2021/01/17 05:59:59;;;;;;;11.53;7.63;;;;;;;-1.28;67.47;100933.09;5032650;28;20230;-65
2021/01/17 06:02:25;;;;;;;10.97;7.83;;;;;;;-1.29;67.25;100930.50;5033008;28;20213;-65
2021/01/17 06:04:55;;;;;;;11.57;7.57;;;;;;;-1.30;67.56;100939.22;5034711;28;20230;-65
2021/01/17 06:07:24;;;;;;;10.97;7.73;;;;;;;-1.30;67.75;100936.59;5033959;28;20214;-60
2021/01/17 06:09:57;;;;;;;11.90;7.73;;;;;;;-1.28;67.75;100940.94;5032814;28;20592;-64
2021/01/17 06:12:30;;;;;;;12.00;8.07;;;;;;;-1.27;67.45;100941.81;5033289;28;20679;-63
2021/01/17 06:15:03;;;;;;;11.60;7.50;;;;;;;-1.28;67.98;100942.69;5033765;28;20733;-66
2021/01/17 06:17:32;;;;;;;11.33;8.37;;;;;;;-1.28;67.64;100946.16;5033624;28;20707;-66
2021/01/17 06:19:59;;;;;;;11.67;8.30;;;;;;;-1.27;67.23;100944.41;5033086;28;20284;-66
2021/01/17 06:22:29;;;;;;;11.47;8.20;;;;;;;-1.27;67.54;100941.81;5033327;28;20201;-67
2021/01/17 06:24:59;;;;;;;13.33;8.43;;;;;;;-1.26;67.17;100936.56;5033265;28;20230;-65
2021/01/17 06:27:27;;;;;;;13.97;8.43;;;;;;;-1.25;67.59;100942.63;5033601;28;20217;-65
2021/01/17 06:29:53;;;;;;;11.83;8.77;;;;;;;-1.25;67.64;100945.25;5032741;28;20226;-65
2021/01/17 06:32:22;;;;;;;12.83;8.80;;;;;;;-1.23;67.42;100953.94;5033112;28;20214;-65
2021/01/17 06:34:50;;;;;;;12.63;8.80;;;;;;;-1.24;67.46;100950.44;5033527;28;20206;-63
2021/01/17 06:37:17;;;;;;;14.10;9.57;;;;;;;-1.22;67.39;100953.06;5033502;28;20782;-65
2021/01/17 06:39:48;;;;;;;13.07;8.50;;;;;;;-1.21;67.74;100942.59;5032615;28;20229;-66
2021/01/17 06:42:15;;;;;;;13.83;9.17;;;;;;;-1.20;67.33;100946.06;5032558;28;20210;-65
2021/01/17 06:44:42;;;;;;;13.90;9.03;;;;;;;-1.21;67.40;100955.66;5032999;28;20729;-64
2021/01/17 06:47:14;;;;;;;14.90;9.43;;;;;;;-1.20;67.86;100956.53;5033318;28;20210;-62
2021/01/17 06:49:41;;;;;;;13.33;8.80;;;;;;;-1.17;67.27;100951.25;5032164;28;20345;-66
2021/01/17 06:52:08;;;;;;;15.17;9.17;;;;;;;-1.17;67.47;100966.94;5032816;28;20198;-64
2021/01/17 06:54:35;;;;;;;13.17;8.80;;;;;;;-1.15;67.36;100965.19;5032721;28;20202;-64
2021/01/17 06:57:03;;;;;;;11.97;8.13;;;;;;;-1.14;67.38;100967.78;5033129;28;20238;-66
2021/01/17 06:59:31;;;;;;;13.63;9.10;;;;;;;-1.14;67.42;100973.00;5032991;28;20234;-64
2021/01/17 07:02:22;;;;;;;12.23;8.63;;;;;;;-1.14;67.76;100974.75;5032251;28;20233;-65
2021/01/17 07:05:03;;;;;;;13.60;8.67;;;;;;;-1.12;67.76;100983.44;5032824;28;20230;-65
2021/01/17 07:07:42;;;;;;;14.53;8.87;;;;;;;-1.12;67.42;100986.06;5032526;28;20224;-66
2021/01/17 07:10:11;;;;;;;12.10;8.37;;;;;;;-1.11;67.69;100985.19;5032241;28;20225;-63
2021/01/17 07:12:53;;;;;;;13.07;9.07;;;;;;;-1.12;67.84;100986.94;5032247;28;20206;-66
2021/01/17 07:15:25;;;;;;;13.63;8.67;;;;;;;-1.10;67.93;100985.19;5032525;28;20210;-66
2021/01/17 07:17:59;;;;;;;13.97;9.37;;;;;;;-1.10;67.49;100986.91;5032030;28;20547;-65
2021/01/17 07:20:28;;;;;;;14.63;9.57;;;;;;;-1.09;67.91;100986.03;5032385;28;20209;-66
2021/01/17 07:22:56;;;;;;;31.13;15.13;;;;;;;-1.09;67.87;100986.91;5012185;28;20716;-65
2021/01/17 07:25:25;;;;;;;17.53;10.90;;;;;;;-1.07;67.63;100992.09;5012630;28;20258;-65
2021/01/17 07:28:07;;;;;;;20.60;12.23;;;;;;;-1.08;67.62;100990.38;5029671;28;20213;-65
2021/01/17 07:30:43;;;;;;;18.83;11.93;;;;;;;-1.09;67.87;100979.06;5030558;28;20209;-65
2021/01/17 07:33:10;;;;;;;14.50;9.83;;;;;;;-1.08;68.03;100986.03;5031076;28;20206;-65
2021/01/17 07:35:38;;;;;;;23.23;12.47;;;;;;;-1.09;68.09;100988.66;5032262;28;20202;-65
2021/01/17 07:38:11;;;;;;;21.70;12.50;;;;;;;-1.09;68.03;100999.09;5032171;28;20210;-65
2021/01/17 07:40:52;;;;;;;21.70;12.70;;;;;;;-1.10;68.21;100995.63;5032189;28;20210;-66
2021/01/17 07:43:21;;;;;;;16.80;9.77;;;;;;;-1.11;68.53;100999.13;5032827;28;20221;-64
2021/01/17 07:45:48;;;;;;;16.27;10.70;;;;;;;-1.12;68.40;100999.13;5035751;28;20226;-66
2021/01/17 07:48:15;;;;;;;17.27;10.30;;;;;;;-1.13;68.55;101000.00;5023804;28;20229;-66
2021/01/17 07:50:43;;;;;;;15.30;9.63;;;;;;;-1.15;68.80;101001.78;5031913;28;20206;-65
2021/01/17 07:53:34;;;;;;;16.17;10.97;;;;;;;-1.19;68.80;101006.16;5030048;28;20554;-64
2021/01/17 07:56:06;;;;;;;16.00;10.63;;;;;;;-1.20;69.23;101014.00;5025861;28;20194;-66
2021/01/17 07:58:38;;;;;;;21.40;12.37;;;;;;;-1.20;69.60;101014.88;5031798;28;20234;-64
2021/01/17 08:01:04;;;;;;;19.23;11.53;;;;;;;-1.22;69.64;101016.63;5031669;28;20217;-64
2021/01/17 08:03:30;;;;;;;18.97;12.33;;;;;;;-1.21;69.87;101020.13;5031732;28;20563;-64
2021/01/17 08:05:57;;;;;;;27.20;15.33;;;;;;;-1.20;70.16;101021.84;5032217;28;20226;-62
2021/01/17 08:08:46;;;;;;;19.03;12.17;;;;;;;-1.22;70.31;101015.75;5032606;28;20313;-67
2021/01/17 08:11:43;;;;;;;19.00;10.53;;;;;;;-1.23;70.60;101014.91;5023502;28;20199;-65
2021/01/17 08:14:24;;;;;;;18.53;11.57;;;;;;;-1.24;70.98;101022.75;5027028;28;20611;-64
2021/01/17 08:17:11;;;;;;;19.50;12.13;;;;;;;-1.28;71.22;101021.94;5029339;28;20214;-65
2021/01/17 08:19:42;;;;;;;17.10;11.73;;;;;;;-1.28;71.43;101031.53;5029540;28;20221;-65
2021/01/17 08:22:43;;;;;;;16.97;10.93;;;;;;;-1.30;71.57;101023.69;5022445;28;20225;-66
2021/01/17 08:25:09;;;;;;;23.77;13.97;;;;;;;-1.29;71.62;101019.34;5011950;28;20230;-65
2021/01/17 08:27:37;;;;;;;19.97;11.97;;;;;;;-1.28;71.87;101029.78;5015251;28;20301;-64
2021/01/17 08:30:15;;;;;;;20.40;12.83;;;;;;;-1.25;72.20;101031.47;5031478;28;20301;-65
2021/01/17 08:32:44;;;;;;;19.87;12.33;;;;;;;-1.24;72.40;101035.81;5023617;28;20203;-64
2021/01/17 08:35:29;;;;;;;20.93;12.97;;;;;;;-1.23;72.80;101040.16;5034694;28;20644;-64
2021/01/17 08:37:58;;;;;;;20.53;12.30;;;;;;;-1.25;72.89;101040.19;5033994;28;20194;-64
2021/01/17 08:40:42;;;;;;;23.43;14.07;;;;;;;-1.25;73.11;101039.31;5033578;28;20226;-64
2021/01/17 08:43:09;;;;;;;21.43;12.27;;;;;;;-1.25;73.18;101053.25;5035040;28;20206;-64
2021/01/17 08:45:38;;;;;;;19.27;11.17;;;;;;;-1.26;73.05;101055.91;5035113;28;20222;-65
2021/01/17 08:48:22;;;;;;;20.00;11.47;;;;;;;-1.27;73.36;101054.16;5033370;28;20205;-64
2021/01/17 08:50:50;;;;;;;19.97;13.07;;;;;;;-1.27;73.59;101059.38;5031062;28;20202;-64
2021/01/17 08:53:24;;;;;;;23.70;13.77;;;;;;;-1.27;73.71;101043.72;5033706;28;20583;-65
2021/01/17 08:55:51;;;;;;;20.50;13.07;;;;;;;-1.25;73.83;101060.22;5034326;28;20207;-65
2021/01/17 08:58:41;;;;;;;25.00;14.27;;;;;;;-1.25;74.04;101063.69;5027315;28;20210;-64
2021/01/17 09:01:09;;;;;;;21.37;12.60;;;;;;;-1.24;73.99;101065.44;5029340;28;20220;-63
2021/01/17 09:03:37;;;;;;;20.60;12.67;;;;;;;-1.23;73.92;101061.94;5032604;28;20203;-66
2021/01/17 09:06:05;;;;;;;25.90;14.10;;;;;;;-1.22;73.90;101065.41;5027486;28;20237;-65
2021/01/17 09:08:32;;;;;;;21.67;13.53;;;;;;;-1.21;74.75;101064.53;5026959;28;20707;-63
2021/01/17 09:10:59;;;;;;;23.57;14.10;;;;;;;-1.21;74.65;101065.41;5032308;28;20213;-65
2021/01/17 09:13:28;;;;;;;23.50;13.83;;;;;;;-1.19;74.76;101074.09;5030970;28;20675;-63
2021/01/17 09:15:58;;;;;;;21.70;13.50;;;;;;;-1.18;74.71;101070.63;5030416;28;20797;-63
2021/01/17 09:18:25;;;;;;;23.83;14.13;;;;;;;-1.16;74.82;101079.31;5032543;28;20222;-64
2021/01/17 09:20:52;;;;;;;21.93;13.33;;;;;;;-1.14;75.10;101079.31;5029406;28;20252;-64
2021/01/17 09:23:19;;;;;;;24.17;13.27;;;;;;;-1.12;75.14;101085.38;5022733;28;20220;-63
2021/01/17 09:25:47;;;;;;;23.97;14.27;;;;;;;-1.12;75.31;101101.94;5022481;28;20227;-62
2021/01/17 09:28:14;;;;;;;20.57;13.17;;;;;;;-1.12;75.49;101090.63;5021911;28;20268;-63
2021/01/17 09:30:47;;;;;;;21.10;12.93;;;;;;;-1.12;75.61;101093.22;5037914;28;20562;-63
2021/01/17 09:33:14;;;;;;;25.37;14.43;;;;;;;-1.11;75.33;101097.56;5031458;28;20404;-64
2021/01/17 09:35:41;;;;;;;22.00;13.73;;;;;;;-1.10;75.48;101100.19;5029588;28;20250;-63
2021/01/17 09:38:13;;;;;;;23.00;13.27;;;;;;;-1.08;75.42;101102.78;5033255;28;20268;-64
2021/01/17 09:40:40;;;;;;;21.17;12.97;;;;;;;-1.07;75.69;101109.72;5033082;28;20202;-63
2021/01/17 09:43:07;;;;;;;22.50;13.97;;;;;;;-1.05;75.34;101113.19;5033353;28;20293;-64
2021/01/17 09:45:33;;;;;;;24.70;14.97;;;;;;;-1.03;75.49;101111.44;5032478;28;20225;-64
2021/01/17 09:48:00;;;;;;;25.17;14.43;;;;;;;-1.00;75.44;101121.88;5016832;28;20294;-64
2021/01/17 09:50:31;;;;;;;28.23;15.20;;;;;;;-1.00;75.81;101114.03;5031188;28;20214;-65
2021/01/17 09:53:04;;;;;;;22.40;14.00;;;;;;;-0.98;75.82;101112.25;5033518;28;20206;-64
2021/01/17 09:55:31;;;;;;;22.93;13.90;;;;;;;-0.94;75.65;101113.09;5031857;28;20202;-64
2021/01/17 09:58:00;;;;;;;23.63;15.23;;;;;;;-0.92;75.78;101117.44;5028967;28;20233;-64
2021/01/17 10:00:26;;;;;;;23.37;13.43;;;;;;;-0.91;75.96;101119.19;5060712;22;20225;-61
2021/01/17 10:02:53;;;;;;;23.37;14.00;;;;;;;-0.90;75.85;101127.91;5047808;28;20216;-65
2021/01/17 10:05:25;;;;;;;20.73;12.27;;;;;;;-0.90;75.93;101123.53;5047871;28;20767;-62
2021/01/17 10:07:59;;;;;;;20.23;13.10;;;;;;;-0.90;75.84;101117.44;5044467;28;20209;-62
2021/01/17 10:10:26;;;;;;;20.70;12.97;;;;;;;-0.90;75.87;101125.28;5049607;28;20568;-62
2021/01/17 10:12:52;;;;;;;24.90;14.03;;;;;;;-0.89;75.82;101125.25;5048281;28;20212;-63
2021/01/17 10:15:19;;;;;;;21.33;12.83;;;;;;;-0.87;75.94;101125.22;5048798;28;20209;-63
2021/01/17 10:17:46;;;;;;;20.57;13.00;;;;;;;-0.86;75.80;101127.81;5046700;28;20613;-63
2021/01/17 10:20:22;;;;;;;23.47;13.77;;;;;;;-0.84;75.86;101125.19;5048345;28;20219;-64
2021/01/17 10:22:48;;;;;;;20.90;13.67;;;;;;;-0.83;75.79;101135.66;5048831;28;20193;-62
2021/01/17 10:25:18;;;;;;;23.13;14.00;;;;;;;-0.81;75.94;101136.50;5050693;28;20217;-62
2021/01/17 10:27:47;;;;;;;23.27;13.70;;;;;;;-0.79;75.87;101142.59;5050928;28;20193;-63
2021/01/17 10:30:19;;;;;;;22.77;13.63;;;;;;;-0.78;75.93;101133.00;5042235;28;20229;-63
2021/01/17 10:32:45;;;;;;;21.43;13.77;;;;;;;-0.76;75.74;101139.97;5048393;28;20202;-61
2021/01/17 10:35:12;;;;;;;23.80;14.57;;;;;;;-0.73;75.60;101131.22;5046591;28;20202;-64
2021/01/17 10:37:40;;;;;;;23.30;14.33;;;;;;;-0.72;75.82;101133.78;5051236;28;20198;-62
2021/01/17 10:40:07;;;;;;;23.20;13.63;;;;;;;-0.71;75.90;101129.44;5051142;28;20279;-59
2021/01/17 10:42:36;;;;;;;21.70;13.97;;;;;;;-0.68;75.83;101136.38;5050971;28;20635;-63
2021/01/17 10:45:05;;;;;;;23.40;13.63;;;;;;;-0.67;75.88;101125.03;5050573;28;20221;-64
2021/01/17 10:47:44;;;;;;;22.43;13.43;;;;;;;-0.65;75.81;101118.06;5051660;28;20205;-64
2021/01/17 10:50:13;;;;;;;22.93;14.30;;;;;;;-0.62;75.58;101133.72;5051343;28;20222;-64
2021/01/17 10:52:42;;;;;;;24.13;14.07;;;;;;;-0.60;75.75;101126.72;5033584;28;20237;-65
2021/01/17 10:55:13;;;;;;;23.10;14.40;;;;;;;-0.57;75.48;101126.69;5051132;28;20197;-63
2021/01/17 10:57:41;;;;;;;23.57;14.33;;;;;;;-0.57;75.81;101131.94;5051211;28;20209;-64
2021/01/17 11:00:08;;;;;;;26.70;14.30;;;;;;;-0.55;75.36;101130.16;5050866;28;20229;-65
2021/01/17 11:02:34;;;;;;;26.27;15.27;;;;;;;-0.54;75.42;101130.16;5045646;28;20198;-64
2021/01/17 11:05:02;;;;;;;26.33;14.80;;;;;;;-0.53;74.99;101133.59;5049321;28;20225;-65
2021/01/17 11:07:29;;;;;;;23.00;14.00;;;;;;;-0.51;75.33;101129.22;5051198;28;20269;-63
2021/01/17 11:09:55;;;;;;;26.23;15.53;;;;;;;-0.49;75.25;101119.63;5051801;28;20222;-65
2021/01/17 11:12:35;;;;;;;25.87;15.10;;;;;;;-0.47;75.12;101123.97;5050003;28;20232;-65
2021/01/17 11:15:13;;;;;;;23.00;13.73;;;;;;;-0.44;75.09;101118.69;5049807;28;20686;-61
2021/01/17 11:17:41;;;;;;;25.33;14.13;;;;;;;-0.42;74.92;101124.78;5049021;28;20197;-63
2021/01/17 11:20:08;;;;;;;23.23;13.53;;;;;;;-0.41;74.88;101110.81;5050646;28;20236;-63
2021/01/17 11:22:35;;;;;;;24.67;14.00;;;;;;;-0.40;74.97;101114.31;5050212;28;20658;-62
2021/01/17 11:25:01;;;;;;;26.07;15.03;;;;;;;-0.38;74.99;101112.53;5048480;28;20308;-63
2021/01/17 11:27:35;;;;;;;25.07;14.33;;;;;;;-0.35;74.80;101120.34;5048350;28;20318;-64
2021/01/17 11:30:01;;;;;;;25.20;13.33;;;;;;;-0.31;74.78;101119.41;5047788;28;20292;-64